sensor_id;sensor_type;location;lat;lon;timestamp;pressure;altitude;pressure_sealevel;temperature;humidity
21100;BME280;10708;50.824;4.408;2022-09-17T00:01:35;100698.78;;;9.39;100.00
21100;BME280;10708;50.824;4.408;2022-09-17T00:06:38;100685.53;;;9.44;100.00
21100;BME280;10708;50.824;4.408;2022-09-17T00:11:41;100685.28;;;9.51;100.00
21100;BME280;10708;50.824;4.408;2022-09-17T00:16:46;100682.59;;;9.54;100.00
21100;BME280;10708;50.824;4.408;2022-09-17T00:21:50;100673.88;;;9.52;100.00
21100;BME280;10708;50.824;4.408;2022-09-17T00:26:52;100676.53;;;9.51;100.00
21100;BME280;10708;50.824;4.408;2022-09-17T00:31:56;100663.41;;;9.51;100.00
21100;BME280;10708;50.824;4.408;2022-09-17T00:36:58;100661.56;;;9.54;100.00
21100;BME280;10708;50.824;4.408;2022-09-17T00:42:00;100645.91;;;9.50;100.00
21100;BME280;10708;50.824;4.408;2022-09-17T00:47:11;100669.75;;;9.44;100.00
21100;BME280;10708;50.824;4.408;2022-09-17T00:52:17;100673.25;;;9.44;100.00
21100;BME280;10708;50.824;4.408;2022-09-17T00:57:20;100690.59;;;9.50;100.00
21100;BME280;10708;50.824;4.408;2022-09-17T01:02:24;100705.38;;;9.54;100.00
21100;BME280;10708;50.824;4.408;2022-09-17T01:07:44;100695.50;;;9.62;100.00
21100;BME280;10708;50.824;4.408;2022-09-17T01:13:00;100696.28;;;9.66;100.00
21100;BME280;10708;50.824;4.408;2022-09-17T01:18:14;100706.66;;;9.70;100.00
21100;BME280;10708;50.824;4.408;2022-09-17T01:23:40;100700.59;;;9.68;100.00
21100;BME280;10708;50.824;4.408;2022-09-17T01:28:53;100702.25;;;9.71;100.00
21100;BME280;10708;50.824;4.408;2022-09-17T01:34:12;100689.84;;;9.76;100.00
21100;BME280;10708;50.824;4.408;2022-09-17T01:39:30;100690.66;;;9.78;100.00
21100;BME280;10708;50.824;4.408;2022-09-17T01:44:36;100696.66;;;9.81;100.00
21100;BME280;10708;50.824;4.408;2022-09-17T01:49:43;100698.38;;;9.82;100.00
21100;BME280;10708;50.824;4.408;2022-09-17T01:54:48;100707.16;;;9.83;100.00
21100;BME280;10708;50.824;4.408;2022-09-17T01:59:55;100705.34;;;9.85;100.00
21100;BME280;10708;50.824;4.408;2022-09-17T02:05:04;100702.75;;;9.83;100.00
21100;BME280;10708;50.824;4.408;2022-09-17T02:10:11;100703.69;;;9.81;100.00
21100;BME280;10708;50.824;4.408;2022-09-17T02:15:17;100716.84;;;9.81;100.00
21100;BME280;10708;50.824;4.408;2022-09-17T02:20:27;100721.25;;;9.80;100.00
21100;BME280;10708;50.824;4.408;2022-09-17T02:25:35;100697.44;;;9.85;100.00
21100;BME280;10708;50.824;4.408;2022-09-17T02:30:39;100698.25;;;9.87;100.00
21100;BME280;10708;50.824;4.408;2022-09-17T02:35:43;100717.44;;;9.90;100.00
21100;BME280;10708;50.824;4.408;2022-09-17T02:40:48;100707.69;;;9.94;100.00
21100;BME280;10708;50.824;4.408;2022-09-17T02:46:03;100708.53;;;9.94;100.00
21100;BME280;10708;50.824;4.408;2022-09-17T02:51:21;100698.03;;;9.94;100.00
21100;BME280;10708;50.824;4.408;2022-09-17T02:56:30;100693.72;;;9.92;100.00
21100;BME280;10708;50.824;4.408;2022-09-17T03:01:40;100700.78;;;9.90;100.00
21100;BME280;10708;50.824;4.408;2022-09-17T03:06:46;100708.72;;;9.88;100.00
21100;BME280;10708;50.824;4.408;2022-09-17T03:11:49;100704.47;;;9.84;100.00
21100;BME280;10708;50.824;4.408;2022-09-17T03:16:51;100708.06;;;9.82;100.00
21100;BME280;10708;50.824;4.408;2022-09-17T03:21:55;100691.66;;;9.74;100.00
21100;BME280;10708;50.824;4.408;2022-09-17T03:26:57;100691.84;;;9.68;100.00
21100;BME280;10708;50.824;4.408;2022-09-17T03:31:59;100688.56;;;9.59;100.00
21100;BME280;10708;50.824;4.408;2022-09-17T03:37:03;100688.75;;;9.53;100.00
21100;BME280;10708;50.824;4.408;2022-09-17T03:42:05;100691.59;;;9.46;100.00
21100;BME280;10708;50.824;4.408;2022-09-17T03:47:07;100690.81;;;9.42;100.00
21100;BME280;10708;50.824;4.408;2022-09-17T03:52:11;100699.72;;;9.38;100.00
21100;BME280;10708;50.824;4.408;2022-09-17T03:57:13;100689.38;;;9.32;100.00
21100;BME280;10708;50.824;4.408;2022-09-17T04:02:16;100687.78;;;9.27;100.00
21100;BME280;10708;50.824;4.408;2022-09-17T04:07:19;100699.28;;;9.22;100.00
21100;BME280;10708;50.824;4.408;2022-09-17T04:12:22;100710.72;;;9.20;100.00
21100;BME280;10708;50.824;4.408;2022-09-17T04:17:24;100706.34;;;9.20;100.00
21100;BME280;10708;50.824;4.408;2022-09-17T04:22:27;100708.09;;;9.20;100.00
21100;BME280;10708;50.824;4.408;2022-09-17T04:27:29;100702.06;;;9.18;100.00
21100;BME280;10708;50.824;4.408;2022-09-17T04:32:31;100703.03;;;9.14;100.00
21100;BME280;10708;50.824;4.408;2022-09-17T04:37:35;100698.81;;;9.08;100.00
21100;BME280;10708;50.824;4.408;2022-09-17T04:42:37;100705.09;;;9.03;100.00
21100;BME280;10708;50.824;4.408;2022-09-17T04:47:40;100699.03;;;8.99;100.00
21100;BME280;10708;50.824;4.408;2022-09-17T04:52:44;100706.81;;;9.04;100.00
21100;BME280;10708;50.824;4.408;2022-09-17T04:57:47;100718.09;;;9.07;100.00
21100;BME280;10708;50.824;4.408;2022-09-17T05:02:51;100714.50;;;9.10;100.00
21100;BME280;10708;50.824;4.408;2022-09-17T05:07:55;100714.50;;;9.10;100.00
21100;BME280;10708;50.824;4.408;2022-09-17T05:12:57;100719.84;;;9.08;100.00
21100;BME280;10708;50.824;4.408;2022-09-17T05:17:59;100728.66;;;9.06;100.00
21100;BME280;10708;50.824;4.408;2022-09-17T05:23:02;100728.69;;;9.04;100.00
21100;BME280;10708;50.824;4.408;2022-09-17T05:28:05;100732.16;;;9.06;100.00
21100;BME280;10708;50.824;4.408;2022-09-17T05:33:07;100735.50;;;9.11;100.00
21100;BME280;10708;50.824;4.408;2022-09-17T05:38:10;100741.47;;;9.18;100.00
21100;BME280;10708;50.824;4.408;2022-09-17T05:43:13;100743.91;;;9.24;100.00
21100;BME280;10708;50.824;4.408;2022-09-17T05:48:15;100781.34;;;9.32;100.00
21100;BME280;10708;50.824;4.408;2022-09-17T05:53:19;100774.25;;;9.36;100.00
21100;BME280;10708;50.824;4.408;2022-09-17T05:58:21;100776.78;;;9.39;100.00
21100;BME280;10708;50.824;4.408;2022-09-17T06:03:23;100770.63;;;9.40;100.00
21100;BME280;10708;50.824;4.408;2022-09-17T06:08:28;100770.56;;;9.43;100.00
21100;BME280;10708;50.824;4.408;2022-09-17T06:13:31;100773.00;;;9.49;100.00
21100;BME280;10708;50.824;4.408;2022-09-17T06:18:33;100782.41;;;9.57;100.00
21100;BME280;10708;50.824;4.408;2022-09-17T06:23:37;100790.94;;;9.66;100.00
21100;BME280;10708;50.824;4.408;2022-09-17T06:28:39;100773.25;;;9.71;100.00
21100;BME280;10708;50.824;4.408;2022-09-17T06:33:42;100772.78;;;9.87;100.00
21100;BME280;10708;50.824;4.408;2022-09-17T06:38:45;100771.72;;;9.93;100.00
21100;BME280;10708;50.824;4.408;2022-09-17T06:43:50;100767.97;;;10.02;100.00
21100;BME280;10708;50.824;4.408;2022-09-17T06:48:53;100789.81;;;10.04;100.00
21100;BME280;10708;50.824;4.408;2022-09-17T06:53:56;100784.31;;;10.11;100.00
21100;BME280;10708;50.824;4.408;2022-09-17T06:59:00;100778.06;;;10.15;100.00
21100;BME280;10708;50.824;4.408;2022-09-17T07:04:02;100776.34;;;10.14;100.00
21100;BME280;10708;50.824;4.408;2022-09-17T07:09:06;100781.38;;;10.23;100.00
21100;BME280;10708;50.824;4.408;2022-09-17T07:14:09;100794.75;;;10.44;100.00
21100;BME280;10708;50.824;4.408;2022-09-17T07:19:11;100797.94;;;10.55;100.00
21100;BME280;10708;50.824;4.408;2022-09-17T07:24:18;100813.03;;;10.48;100.00
21100;BME280;10708;50.824;4.408;2022-09-17T07:29:20;100807.16;;;10.40;100.00
21100;BME280;10708;50.824;4.408;2022-09-17T07:34:26;100801.72;;;10.46;100.00
21100;BME280;10708;50.824;4.408;2022-09-17T07:39:30;100778.09;;;10.43;100.00
21100;BME280;10708;50.824;4.408;2022-09-17T07:44:32;100785.75;;;10.51;100.00
21100;BME280;10708;50.824;4.408;2022-09-17T07:49:35;100785.66;;;10.80;100.00
21100;BME280;10708;50.824;4.408;2022-09-17T07:54:38;100799.16;;;10.97;100.00
21100;BME280;10708;50.824;4.408;2022-09-17T07:59:40;100793.72;;;11.02;100.00
21100;BME280;10708;50.824;4.408;2022-09-17T08:04:43;100796.22;;;11.31;100.00
21100;BME280;10708;50.824;4.408;2022-09-17T08:09:46;100798.69;;;11.86;100.00
21100;BME280;10708;50.824;4.408;2022-09-17T08:14:48;100799.41;;;12.12;100.00
21100;BME280;10708;50.824;4.408;2022-09-17T08:19:50;100791.78;;;11.81;100.00
21100;BME280;10708;50.824;4.408;2022-09-17T08:24:55;100809.63;;;11.75;100.00
21100;BME280;10708;50.824;4.408;2022-09-17T08:29:57;100812.69;;;11.63;100.00
21100;BME280;10708;50.824;4.408;2022-09-17T08:35:00;100808.16;;;11.66;100.00
21100;BME280;10708;50.824;4.408;2022-09-17T08:40:04;100818.66;;;12.16;100.00
21100;BME280;10708;50.824;4.408;2022-09-17T08:45:09;100813.81;;;13.14;100.00
21100;BME280;10708;50.824;4.408;2022-09-17T08:50:16;100812.63;;;13.81;100.00
21100;BME280;10708;50.824;4.408;2022-09-17T08:55:34;100807.25;;;13.23;100.00
21100;BME280;10708;50.824;4.408;2022-09-17T09:00:42;100816.13;;;12.78;100.00
21100;BME280;10708;50.824;4.408;2022-09-17T09:05:48;100824.34;;;12.72;100.00
21100;BME280;10708;50.824;4.408;2022-09-17T09:10:55;100820.06;;;12.90;100.00
21100;BME280;10708;50.824;4.408;2022-09-17T09:15:59;100833.22;;;12.91;100.00
21100;BME280;10708;50.824;4.408;2022-09-17T09:21:15;100844.00;;;12.65;100.00
21100;BME280;10708;50.824;4.408;2022-09-17T09:26:27;100837.75;;;12.23;100.00
21100;BME280;10708;50.824;4.408;2022-09-17T09:31:53;100850.28;;;12.17;100.00
21100;BME280;10708;50.824;4.408;2022-09-17T09:37:09;100852.22;;;12.12;100.00
21100;BME280;10708;50.824;4.408;2022-09-17T09:42:21;100858.81;;;12.01;100.00
21100;BME280;10708;50.824;4.408;2022-09-17T09:47:35;100850.59;;;12.08;100.00
21100;BME280;10708;50.824;4.408;2022-09-17T09:52:53;100853.06;;;12.36;100.00
21100;BME280;10708;50.824;4.408;2022-09-17T09:58:10;100859.28;;;12.35;100.00
21100;BME280;10708;50.824;4.408;2022-09-17T10:03:19;100847.78;;;13.02;100.00
21100;BME280;10708;50.824;4.408;2022-09-17T10:08:22;100845.09;;;13.25;100.00
21100;BME280;10708;50.824;4.408;2022-09-17T10:13:28;100836.47;;;13.20;100.00
21100;BME280;10708;50.824;4.408;2022-09-17T10:18:31;100836.56;;;12.97;100.00
21100;BME280;10708;50.824;4.408;2022-09-17T10:23:35;100848.91;;;12.96;100.00
21100;BME280;10708;50.824;4.408;2022-09-17T10:28:48;100843.19;;;12.85;100.00
21100;BME280;10708;50.824;4.408;2022-09-17T10:33:55;100855.94;;;12.75;100.00
21100;BME280;10708;50.824;4.408;2022-09-17T10:39:17;100850.94;;;12.68;100.00
21100;BME280;10708;50.824;4.408;2022-09-17T10:44:23;100845.38;;;12.75;100.00
21100;BME280;10708;50.824;4.408;2022-09-17T10:49:34;100857.41;;;12.82;100.00
21100;BME280;10708;50.824;4.408;2022-09-17T11:00:32;100840.63;;;12.62;100.00
21100;BME280;10708;50.824;4.408;2022-09-17T11:05:56;100845.47;;;12.72;100.00
21100;BME280;10708;50.824;4.408;2022-09-17T11:11:08;100843.25;;;12.62;100.00
21100;BME280;10708;50.824;4.408;2022-09-17T11:16:27;100849.59;;;12.57;100.00
21100;BME280;10708;50.824;4.408;2022-09-17T11:21:41;100845.00;;;12.84;100.00
21100;BME280;10708;50.824;4.408;2022-09-17T11:26:48;100861.69;;;12.63;100.00
21100;BME280;10708;50.824;4.408;2022-09-17T11:32:01;100848.16;;;12.49;100.00
21100;BME280;10708;50.824;4.408;2022-09-17T11:37:10;100863.13;;;12.48;100.00
21100;BME280;10708;50.824;4.408;2022-09-17T11:42:16;100847.25;;;12.50;100.00
21100;BME280;10708;50.824;4.408;2022-09-17T11:47:27;100858.03;;;12.67;100.00
21100;BME280;10708;50.824;4.408;2022-09-17T11:52:35;100849.22;;;12.67;100.00
21100;BME280;10708;50.824;4.408;2022-09-17T11:57:40;100847.31;;;12.70;100.00
21100;BME280;10708;50.824;4.408;2022-09-17T12:02:50;100834.34;;;12.64;100.00
21100;BME280;10708;50.824;4.408;2022-09-17T12:07:55;100838.47;;;12.71;100.00
21100;BME280;10708;50.824;4.408;2022-09-17T12:13:05;100836.50;;;12.76;100.00
21100;BME280;10708;50.824;4.408;2022-09-17T12:18:20;100813.75;;;12.72;100.00
21100;BME280;10708;50.824;4.408;2022-09-17T12:23:32;100813.75;;;12.94;100.00
21100;BME280;10708;50.824;4.408;2022-09-17T12:28:42;100813.41;;;13.02;100.00
21100;BME280;10708;50.824;4.408;2022-09-17T12:33:54;100818.72;;;13.02;100.00
21100;BME280;10708;50.824;4.408;2022-09-17T12:39:08;100818.91;;;12.97;100.00
21100;BME280;10708;50.824;4.408;2022-09-17T12:44:36;100813.31;;;12.83;100.00
21100;BME280;10708;50.824;4.408;2022-09-17T12:49:55;100806.75;;;13.13;100.00
21100;BME280;10708;50.824;4.408;2022-09-17T13:00:35;100814.34;;;13.01;100.00
21100;BME280;10708;50.824;4.408;2022-09-17T13:06:04;100810.06;;;12.33;100.00
21100;BME280;10708;50.824;4.408;2022-09-17T13:11:39;100825.13;;;12.07;100.00
21100;BME280;10708;50.824;4.408;2022-09-17T13:16:46;100798.34;;;11.70;100.00
21100;BME280;10708;50.824;4.408;2022-09-17T13:21:58;100775.03;;;11.34;100.00
21100;BME280;10708;50.824;4.408;2022-09-17T13:27:03;100776.75;;;11.35;100.00
21100;BME280;10708;50.824;4.408;2022-09-17T13:32:05;100784.31;;;11.44;100.00
21100;BME280;10708;50.824;4.408;2022-09-17T13:37:17;100793.91;;;11.47;100.00
21100;BME280;10708;50.824;4.408;2022-09-17T13:42:22;100783.09;;;11.55;100.00
21100;BME280;10708;50.824;4.408;2022-09-17T13:47:30;100795.84;;;11.90;100.00
21100;BME280;10708;50.824;4.408;2022-09-17T13:52:40;100799.75;;;12.27;100.00
21100;BME280;10708;50.824;4.408;2022-09-17T13:57:47;100801.03;;;12.60;100.00
21100;BME280;10708;50.824;4.408;2022-09-17T14:02:51;100789.47;;;12.84;100.00
21100;BME280;10708;50.824;4.408;2022-09-17T14:13:42;100795.31;;;13.13;100.00
21100;BME280;10708;50.824;4.408;2022-09-17T14:18:55;100791.53;;;13.20;100.00
21100;BME280;10708;50.824;4.408;2022-09-17T14:24:02;100795.53;;;13.28;100.00
21100;BME280;10708;50.824;4.408;2022-09-17T14:29:11;100786.38;;;13.37;100.00
21100;BME280;10708;50.824;4.408;2022-09-17T14:34:20;100805.81;;;13.36;100.00
21100;BME280;10708;50.824;4.408;2022-09-17T14:39:27;100826.97;;;13.16;100.00
21100;BME280;10708;50.824;4.408;2022-09-17T14:44:30;100849.13;;;12.25;100.00
21100;BME280;10708;50.824;4.408;2022-09-17T14:49:35;100849.31;;;11.70;100.00
21100;BME280;10708;50.824;4.408;2022-09-17T14:54:39;100851.31;;;11.39;100.00
21100;BME280;10708;50.824;4.408;2022-09-17T14:59:49;100859.34;;;11.36;100.00
21100;BME280;10708;50.824;4.408;2022-09-17T15:04:52;100846.53;;;11.50;100.00
21100;BME280;10708;50.824;4.408;2022-09-17T15:10:05;100839.91;;;11.63;100.00
21100;BME280;10708;50.824;4.408;2022-09-17T15:15:16;100850.06;;;11.75;100.00
21100;BME280;10708;50.824;4.408;2022-09-17T15:20:20;100852.28;;;11.88;100.00
21100;BME280;10708;50.824;4.408;2022-09-17T15:25:27;100843.31;;;11.92;100.00
21100;BME280;10708;50.824;4.408;2022-09-17T15:30:30;100846.72;;;11.95;100.00
21100;BME280;10708;50.824;4.408;2022-09-17T15:35:33;100858.22;;;11.93;100.00
21100;BME280;10708;50.824;4.408;2022-09-17T15:40:38;100853.66;;;11.98;100.00
21100;BME280;10708;50.824;4.408;2022-09-17T15:45:42;100850.25;;;11.94;100.00
21100;BME280;10708;50.824;4.408;2022-09-17T15:50:49;100851.84;;;11.98;100.00
21100;BME280;10708;50.824;4.408;2022-09-17T15:56:03;100859.56;;;12.04;100.00
21100;BME280;10708;50.824;4.408;2022-09-17T16:01:49;100860.53;;;12.02;100.00
21100;BME280;10708;50.824;4.408;2022-09-17T16:06:59;100875.56;;;12.00;100.00
21100;BME280;10708;50.824;4.408;2022-09-17T16:12:05;100896.97;;;11.92;100.00
21100;BME280;10708;50.824;4.408;2022-09-17T16:17:27;100884.91;;;11.85;100.00
21100;BME280;10708;50.824;4.408;2022-09-17T16:22:32;100887.53;;;11.85;100.00
21100;BME280;10708;50.824;4.408;2022-09-17T16:27:42;100878.59;;;11.89;100.00
21100;BME280;10708;50.824;4.408;2022-09-17T16:32:45;100874.94;;;11.93;100.00
21100;BME280;10708;50.824;4.408;2022-09-17T16:37:48;100874.97;;;11.92;100.00
21100;BME280;10708;50.824;4.408;2022-09-17T16:42:52;100879.50;;;11.88;100.00
21100;BME280;10708;50.824;4.408;2022-09-17T16:47:55;100870.31;;;11.75;100.00
21100;BME280;10708;50.824;4.408;2022-09-17T16:52:57;100873.59;;;11.81;100.00
21100;BME280;10708;50.824;4.408;2022-09-17T16:58:01;100878.53;;;11.66;100.00
21100;BME280;10708;50.824;4.408;2022-09-17T17:03:03;100880.50;;;11.59;100.00
21100;BME280;10708;50.824;4.408;2022-09-17T17:08:06;100887.81;;;11.51;100.00
21100;BME280;10708;50.824;4.408;2022-09-17T17:13:11;100892.13;;;11.54;100.00
21100;BME280;10708;50.824;4.408;2022-09-17T17:18:13;100885.13;;;11.53;100.00
21100;BME280;10708;50.824;4.408;2022-09-17T17:23:16;100890.41;;;11.53;100.00
21100;BME280;10708;50.824;4.408;2022-09-17T17:28:19;100893.19;;;11.48;100.00
21100;BME280;10708;50.824;4.408;2022-09-17T17:33:22;100907.72;;;11.35;100.00
21100;BME280;10708;50.824;4.408;2022-09-17T17:38:24;100913.88;;;11.35;100.00
21100;BME280;10708;50.824;4.408;2022-09-17T17:43:28;100911.19;;;11.37;100.00
21100;BME280;10708;50.824;4.408;2022-09-17T17:48:30;100910.16;;;11.41;100.00
21100;BME280;10708;50.824;4.408;2022-09-17T17:53:33;100911.00;;;11.41;100.00
21100;BME280;10708;50.824;4.408;2022-09-17T17:58:37;100913.66;;;11.41;100.00
21100;BME280;10708;50.824;4.408;2022-09-17T18:03:40;100925.22;;;11.37;100.00
21100;BME280;10708;50.824;4.408;2022-09-17T18:08:43;100925.22;;;11.37;100.00
21100;BME280;10708;50.824;4.408;2022-09-17T18:13:49;100921.78;;;11.35;100.00
21100;BME280;10708;50.824;4.408;2022-09-17T18:18:54;100937.75;;;11.31;100.00
21100;BME280;10708;50.824;4.408;2022-09-17T18:23:57;100927.19;;;11.31;100.00
21100;BME280;10708;50.824;4.408;2022-09-17T18:29:00;100947.47;;;11.29;100.00
21100;BME280;10708;50.824;4.408;2022-09-17T18:34:04;100953.59;;;11.29;100.00
21100;BME280;10708;50.824;4.408;2022-09-17T18:39:10;100963.25;;;11.30;100.00
21100;BME280;10708;50.824;4.408;2022-09-17T18:44:15;100956.53;;;11.20;100.00
21100;BME280;10708;50.824;4.408;2022-09-17T18:49:18;100976.06;;;11.15;100.00
21100;BME280;10708;50.824;4.408;2022-09-17T18:54:21;100974.75;;;11.00;100.00
21100;BME280;10708;50.824;4.408;2022-09-17T18:59:25;100976.53;;;10.99;100.00
21100;BME280;10708;50.824;4.408;2022-09-17T19:04:27;100971.44;;;10.93;100.00
21100;BME280;10708;50.824;4.408;2022-09-17T19:09:29;100978.53;;;10.91;100.00
21100;BME280;10708;50.824;4.408;2022-09-17T19:14:33;100979.44;;;10.90;100.00
21100;BME280;10708;50.824;4.408;2022-09-17T19:19:35;100974.28;;;10.87;100.00
21100;BME280;10708;50.824;4.408;2022-09-17T19:24:37;100971.69;;;10.86;100.00
21100;BME280;10708;50.824;4.408;2022-09-17T19:29:41;100961.25;;;10.83;100.00
21100;BME280;10708;50.824;4.408;2022-09-17T19:34:43;100963.84;;;10.84;100.00
21100;BME280;10708;50.824;4.408;2022-09-17T19:39:45;100965.72;;;10.79;100.00
21100;BME280;10708;50.824;4.408;2022-09-17T19:44:49;100969.34;;;10.77;100.00
21100;BME280;10708;50.824;4.408;2022-09-17T19:49:51;100972.72;;;10.80;100.00
21100;BME280;10708;50.824;4.408;2022-09-17T19:54:53;100977.09;;;10.81;100.00
21100;BME280;10708;50.824;4.408;2022-09-17T19:59:57;100962.19;;;10.80;100.00
21100;BME280;10708;50.824;4.408;2022-09-17T20:04:59;100965.81;;;10.78;100.00
21100;BME280;10708;50.824;4.408;2022-09-17T20:10:01;100968.28;;;10.82;100.00
21100;BME280;10708;50.824;4.408;2022-09-17T20:15:07;100968.31;;;10.81;100.00
21100;BME280;10708;50.824;4.408;2022-09-17T20:20:09;100960.47;;;10.79;100.00
21100;BME280;10708;50.824;4.408;2022-09-17T20:25:13;100975.41;;;10.79;100.00
21100;BME280;10708;50.824;4.408;2022-09-17T20:30:17;100971.84;;;10.80;100.00
21100;BME280;10708;50.824;4.408;2022-09-17T20:35:19;100964.94;;;10.77;100.00
21100;BME280;10708;50.824;4.408;2022-09-17T20:40:21;100973.75;;;10.76;100.00
21100;BME280;10708;50.824;4.408;2022-09-17T20:45:25;100974.63;;;10.77;100.00
21100;BME280;10708;50.824;4.408;2022-09-17T20:50:27;100976.34;;;10.78;100.00
21100;BME280;10708;50.824;4.408;2022-09-17T20:55:29;100981.53;;;10.79;100.00
21100;BME280;10708;50.824;4.408;2022-09-17T21:00:33;100982.34;;;10.81;100.00
21100;BME280;10708;50.824;4.408;2022-09-17T21:05:36;100984.81;;;10.87;100.00
21100;BME280;10708;50.824;4.408;2022-09-17T21:10:42;100983.25;;;10.80;100.00
21100;BME280;10708;50.824;4.408;2022-09-17T21:15:55;100980.59;;;10.82;100.00
21100;BME280;10708;50.824;4.408;2022-09-17T21:20:59;100984.94;;;10.83;100.00
21100;BME280;10708;50.824;4.408;2022-09-17T21:26:04;100980.66;;;10.79;100.00
21100;BME280;10708;50.824;4.408;2022-09-17T21:31:09;100978.75;;;10.85;100.00
21100;BME280;10708;50.824;4.408;2022-09-17T21:36:13;100978.03;;;10.79;100.00
21100;BME280;10708;50.824;4.408;2022-09-17T21:41:16;100978.91;;;10.79;100.00
21100;BME280;10708;50.824;4.408;2022-09-17T21:46:21;100974.72;;;10.72;100.00
21100;BME280;10708;50.824;4.408;2022-09-17T21:51:25;100973.94;;;10.68;100.00
21100;BME280;10708;50.824;4.408;2022-09-17T21:56:30;100972.97;;;10.72;100.00
21100;BME280;10708;50.824;4.408;2022-09-17T22:01:35;100969.53;;;10.69;100.00
21100;BME280;10708;50.824;4.408;2022-09-17T22:06:39;100974.81;;;10.69;100.00
21100;BME280;10708;50.824;4.408;2022-09-17T22:11:42;100986.31;;;10.66;100.00
21100;BME280;10708;50.824;4.408;2022-09-17T22:16:48;100983.84;;;10.60;100.00
21100;BME280;10708;50.824;4.408;2022-09-17T22:21:54;100986.69;;;10.54;100.00
21100;BME280;10708;50.824;4.408;2022-09-17T22:26:56;100985.00;;;10.52;100.00
21100;BME280;10708;50.824;4.408;2022-09-17T22:32:00;100986.75;;;10.51;100.00
21100;BME280;10708;50.824;4.408;2022-09-17T22:37:03;100973.53;;;10.53;100.00
21100;BME280;10708;50.824;4.408;2022-09-17T22:42:06;100978.78;;;10.54;100.00
21100;BME280;10708;50.824;4.408;2022-09-17T22:47:09;100977.72;;;10.60;100.00
21100;BME280;10708;50.824;4.408;2022-09-17T22:52:12;100960.19;;;10.59;100.00
21100;BME280;10708;50.824;4.408;2022-09-17T22:57:14;100965.56;;;10.56;100.00
21100;BME280;10708;50.824;4.408;2022-09-17T23:02:17;100946.22;;;10.57;100.00
21100;BME280;10708;50.824;4.408;2022-09-17T23:07:20;100944.47;;;10.57;100.00
21100;BME280;10708;50.824;4.408;2022-09-17T23:12:31;100944.59;;;10.53;100.00
21100;BME280;10708;50.824;4.408;2022-09-17T23:17:35;100933.19;;;10.52;100.00
21100;BME280;10708;50.824;4.408;2022-09-17T23:22:37;100938.53;;;10.49;100.00
21100;BME280;10708;50.824;4.408;2022-09-17T23:27:39;100938.81;;;10.40;100.00
21100;BME280;10708;50.824;4.408;2022-09-17T23:32:43;100936.34;;;10.34;100.00
21100;BME280;10708;50.824;4.408;2022-09-17T23:37:46;100926.78;;;10.31;100.00
21100;BME280;10708;50.824;4.408;2022-09-17T23:42:48;100924.31;;;10.25;100.00
21100;BME280;10708;50.824;4.408;2022-09-17T23:47:52;100921.84;;;10.19;100.00
21100;BME280;10708;50.824;4.408;2022-09-17T23:52:54;100909.72;;;10.14;100.00
21100;BME280;10708;50.824;4.408;2022-09-17T23:57:57;100920.47;;;10.06;100.00
